createdAt,value
2023-10-23T00:02:10.110Z,14.06
2023-10-23T00:04:38.669Z,13.86
2023-10-23T00:07:07.117Z,13.82
2023-10-23T00:09:35.238Z,13.92
2023-10-23T00:12:04.520Z,13.62
2023-10-23T00:14:32.816Z,13.58
2023-10-23T00:17:00.981Z,13.68
2023-10-23T00:19:28.979Z,13.80
2023-10-23T00:21:58.244Z,14.00
2023-10-23T00:24:28.000Z,13.90
2023-10-23T00:26:57.149Z,14.00
2023-10-23T00:29:25.234Z,13.80
2023-10-23T00:31:54.300Z,13.80
2023-10-23T00:34:22.479Z,13.84
2023-10-23T00:36:50.425Z,13.76
2023-10-23T00:39:18.483Z,13.72
2023-10-23T00:41:46.648Z,13.80
2023-10-23T00:44:15.702Z,13.62
2023-10-23T00:46:44.180Z,13.40
2023-10-23T00:49:14.583Z,13.48
2023-10-23T00:51:42.719Z,13.38
2023-10-23T00:54:10.988Z,13.30
2023-10-23T00:56:39.193Z,13.34
2023-10-23T00:59:09.017Z,13.32
2023-10-23T01:01:38.893Z,13.30
2023-10-23T01:04:07.740Z,13.42
2023-10-23T01:06:36.008Z,13.46
2023-10-23T01:09:04.368Z,13.60
2023-10-23T01:11:32.463Z,13.68
2023-10-23T01:14:00.632Z,13.60
2023-10-23T01:16:28.617Z,13.70
2023-10-23T01:18:57.126Z,13.78
2023-10-23T01:21:25.177Z,13.80
2023-10-23T01:23:53.525Z,13.72
2023-10-23T01:26:21.706Z,13.90
2023-10-23T01:28:49.693Z,13.72
2023-10-23T01:31:18.052Z,13.70
2023-10-23T01:33:46.817Z,13.64
2023-10-23T01:36:15.562Z,13.64
2023-10-23T01:38:44.617Z,13.60
2023-10-23T01:41:12.955Z,13.60
2023-10-23T01:43:41.035Z,13.60
2023-10-23T01:46:09.037Z,13.70
2023-10-23T01:48:37.177Z,13.42
2023-10-23T01:51:05.262Z,13.28
2023-10-23T01:53:33.232Z,13.20
2023-10-23T01:56:07.422Z,13.10
2023-10-23T01:58:35.474Z,13.12
2023-10-23T02:01:03.670Z,13.10
2023-10-23T02:03:33.268Z,13.20
2023-10-23T02:06:01.655Z,13.36
2023-10-23T02:08:29.763Z,13.20
2023-10-23T02:10:57.907Z,13.28
2023-10-23T02:13:25.979Z,13.18
2023-10-23T02:15:53.963Z,13.10
2023-10-23T02:18:22.365Z,13.00
2023-10-23T02:20:51.857Z,13.12
2023-10-23T02:23:20.030Z,13.00
2023-10-23T02:25:47.982Z,12.94
2023-10-23T02:28:16.006Z,12.88
2023-10-23T02:30:44.522Z,12.98
2023-10-23T02:33:12.827Z,12.90
2023-10-23T02:35:40.812Z,13.06
2023-10-23T02:38:08.817Z,12.74
2023-10-23T02:40:38.935Z,12.66
2023-10-23T02:43:07.092Z,12.86
2023-10-23T02:45:35.323Z,12.86
2023-10-23T02:48:03.455Z,12.82
2023-10-23T02:50:31.361Z,12.80
2023-10-23T02:52:59.577Z,12.90
2023-10-23T02:55:28.012Z,12.90
2023-10-23T02:57:56.141Z,12.80
2023-10-23T03:00:24.987Z,12.82
2023-10-23T03:02:53.494Z,12.70
2023-10-23T03:05:22.077Z,12.36
2023-10-23T03:07:50.065Z,12.68
2023-10-23T03:10:20.912Z,12.60
2023-10-23T03:12:48.934Z,12.54
2023-10-23T03:15:17.652Z,12.30
2023-10-23T03:17:45.942Z,12.30
2023-10-23T03:20:14.143Z,12.30
2023-10-23T03:22:42.349Z,12.22
2023-10-23T03:25:10.958Z,12.30
2023-10-23T03:27:39.235Z,12.28
2023-10-23T03:30:07.911Z,12.34
2023-10-23T03:32:36.528Z,12.26
2023-10-23T03:35:05.580Z,12.50
2023-10-23T03:37:33.554Z,12.36
2023-10-23T03:40:01.548Z,12.28
2023-10-23T03:42:29.619Z,12.40
2023-10-23T03:44:57.656Z,12.36
2023-10-23T03:47:25.713Z,12.40
2023-10-23T03:49:53.597Z,12.50
2023-10-23T03:52:21.748Z,12.44
2023-10-23T03:54:49.915Z,12.50
2023-10-23T03:57:17.977Z,12.40
2023-10-23T03:59:46.292Z,12.38
2023-10-23T04:02:14.256Z,12.50
2023-10-23T04:04:42.345Z,12.42
2023-10-23T04:07:10.464Z,12.40
2023-10-23T04:09:38.605Z,12.28
2023-10-23T04:12:07.478Z,12.30
2023-10-23T04:14:35.479Z,12.34
2023-10-23T04:17:04.712Z,12.34
2023-10-23T04:19:32.741Z,12.60
2023-10-23T04:22:00.726Z,12.66
2023-10-23T04:24:28.865Z,12.60
2023-10-23T04:26:57.107Z,12.70
2023-10-23T04:29:25.056Z,12.52
2023-10-23T04:31:53.028Z,12.50
2023-10-23T04:34:21.180Z,12.40
2023-10-23T04:36:49.199Z,12.60
2023-10-23T04:39:17.123Z,12.50
2023-10-23T04:41:45.180Z,12.40
2023-10-23T04:44:13.278Z,12.38
2023-10-23T04:46:41.362Z,12.40
2023-10-23T04:49:09.254Z,12.50
2023-10-23T04:51:37.298Z,12.70
2023-10-23T04:54:05.338Z,12.70
2023-10-23T04:56:33.274Z,12.70
2023-10-23T04:59:01.245Z,12.70
2023-10-23T05:01:29.218Z,12.70
2023-10-23T05:03:57.221Z,12.70
2023-10-23T05:06:28.283Z,12.70
2023-10-23T05:08:56.588Z,12.70
2023-10-23T05:11:24.638Z,12.76
2023-10-23T05:13:52.525Z,12.50
2023-10-23T05:16:20.728Z,12.40
2023-10-23T05:18:49.005Z,12.20
2023-10-23T05:21:17.163Z,12.34
2023-10-23T05:23:45.148Z,12.14
2023-10-23T05:26:13.316Z,12.20
2023-10-23T05:28:44.809Z,12.34
2023-10-23T05:31:12.834Z,12.40
2023-10-23T05:33:40.997Z,12.46
2023-10-23T05:36:11.019Z,12.66
2023-10-23T05:38:39.874Z,12.40
2023-10-23T05:41:09.931Z,12.50
2023-10-23T05:43:38.186Z,12.74
2023-10-23T05:46:06.812Z,12.46
2023-10-23T05:48:35.707Z,12.40
2023-10-23T05:51:06.162Z,12.58
2023-10-23T05:53:35.700Z,12.54
2023-10-23T05:56:05.267Z,12.70
2023-10-23T05:58:34.543Z,13.00
2023-10-23T06:01:11.292Z,12.90
2023-10-23T06:03:39.887Z,13.20
2023-10-23T06:06:08.451Z,13.40
2023-10-23T06:08:36.656Z,13.32
2023-10-23T06:11:09.307Z,13.50
2023-10-23T06:13:37.732Z,13.62
2023-10-23T06:16:06.619Z,14.08
2023-10-23T06:18:36.983Z,14.08
2023-10-23T06:21:06.928Z,14.60
2023-10-23T06:23:41.781Z,14.80
2023-10-23T06:26:10.471Z,14.84
2023-10-23T06:28:39.254Z,15.38
2023-10-23T06:31:12.145Z,14.68
2023-10-23T06:33:40.616Z,14.92
2023-10-23T06:36:09.461Z,14.80
2023-10-23T06:38:38.367Z,14.66
2023-10-23T06:41:08.105Z,14.72
2023-10-23T06:43:38.438Z,15.40
2023-10-23T06:46:07.646Z,15.80
2023-10-23T06:48:36.056Z,16.08
2023-10-23T06:51:05.346Z,16.10
2023-10-23T06:53:33.598Z,16.08
2023-10-23T06:56:02.208Z,15.90
2023-10-23T06:58:30.136Z,16.34
2023-10-23T07:01:05.300Z,17.46
2023-10-23T07:03:33.569Z,17.48
2023-10-23T07:06:06.868Z,17.46
2023-10-23T07:08:35.732Z,17.88
2023-10-23T07:11:04.638Z,18.78
2023-10-23T07:13:32.708Z,19.84
2023-10-23T07:16:04.491Z,20.80
2023-10-23T07:18:32.834Z,21.82
2023-10-23T07:21:01.390Z,21.40
2023-10-23T07:23:33.050Z,21.30
2023-10-23T07:26:15.902Z,20.86
2023-10-23T07:28:44.323Z,20.90
2023-10-23T07:31:13.305Z,20.66
2023-10-23T07:33:41.607Z,21.04
2023-10-23T07:36:14.586Z,20.90
2023-10-23T07:38:44.066Z,20.74
2023-10-23T07:41:13.645Z,20.90
2023-10-23T07:43:42.994Z,22.06
2023-10-23T07:48:43.332Z,22.30
2023-10-23T07:51:11.684Z,22.20
2023-10-23T07:53:39.957Z,21.84
2023-10-23T07:56:08.163Z,21.80
2023-10-23T07:58:36.460Z,20.44
2023-10-23T08:01:12.778Z,20.48
2023-10-23T08:03:41.341Z,20.74
2023-10-23T08:06:11.996Z,20.12
2023-10-23T08:08:42.069Z,20.66
2023-10-23T08:11:12.157Z,20.16
2023-10-23T08:13:40.543Z,20.30
2023-10-23T08:16:09.091Z,20.04
2023-10-23T08:18:40.590Z,19.76
2023-10-23T08:21:16.560Z,20.20
2023-10-23T08:23:54.315Z,19.74
2023-10-23T08:26:22.783Z,19.94
2023-10-23T08:31:37.305Z,20.68
2023-10-23T08:34:08.856Z,20.52
2023-10-23T08:36:37.449Z,20.30
2023-10-23T08:39:05.757Z,19.98
2023-10-23T08:41:35.343Z,19.62
2023-10-23T08:44:04.640Z,19.60
2023-10-23T08:46:34.999Z,19.60
2023-10-23T08:49:04.207Z,19.40
2023-10-23T08:51:32.835Z,20.14
2023-10-23T08:54:18.832Z,20.74
2023-10-23T08:56:55.403Z,21.14
2023-10-23T08:59:23.674Z,22.14
2023-10-23T09:01:52.263Z,23.00
2023-10-23T09:04:20.413Z,23.14
2023-10-23T09:06:49.030Z,23.20
2023-10-23T09:09:45.000Z,23.06
2023-10-23T09:12:32.036Z,22.56
2023-10-23T09:15:14.281Z,22.34
2023-10-23T09:17:43.081Z,22.36
2023-10-23T09:20:19.989Z,22.24
2023-10-23T09:22:51.066Z,21.80
2023-10-23T09:25:19.901Z,21.88
2023-10-23T09:27:48.245Z,22.40
2023-10-23T09:30:22.489Z,22.00
2023-10-23T09:32:55.815Z,22.42
2023-10-23T09:35:27.369Z,22.60
2023-10-23T09:37:57.718Z,22.60
2023-10-23T09:40:26.196Z,22.70
2023-10-23T09:42:55.591Z,22.40
2023-10-23T09:45:24.944Z,22.78
2023-10-23T09:48:00.059Z,22.56
2023-10-23T09:50:29.226Z,22.50
2023-10-23T09:52:58.521Z,23.34
2023-10-23T09:55:31.830Z,24.44
2023-10-23T09:58:05.815Z,25.02
2023-10-23T10:00:35.673Z,25.48
2023-10-23T10:03:12.703Z,25.72
2023-10-23T10:05:43.908Z,25.48
2023-10-23T10:08:17.433Z,25.12
2023-10-23T10:10:46.096Z,25.42
2023-10-23T10:13:16.321Z,26.76
2023-10-23T10:15:50.417Z,27.66
2023-10-23T10:18:18.901Z,28.60
2023-10-23T10:20:49.340Z,28.30
2023-10-23T10:23:18.861Z,27.98
2023-10-23T10:25:47.856Z,27.64
2023-10-23T10:28:16.236Z,28.22
2023-10-23T10:30:52.205Z,27.48
2023-10-23T10:34:21.560Z,27.90
2023-10-23T10:36:11.586Z,27.74
2023-10-23T10:38:39.897Z,27.60
2023-10-23T10:41:14.082Z,27.66
2023-10-23T10:43:45.250Z,28.28
2023-10-23T10:46:21.434Z,29.00
2023-10-23T10:48:52.225Z,29.24
2023-10-23T10:51:28.943Z,29.36
2023-10-23T10:54:04.490Z,30.00
2023-10-23T10:56:33.110Z,30.36
2023-10-23T10:59:02.145Z,30.44
2023-10-23T11:01:31.336Z,29.66
2023-10-23T11:04:01.326Z,29.56
2023-10-23T11:06:30.731Z,29.92
2023-10-23T11:09:00.306Z,30.74
2023-10-23T11:11:29.340Z,30.26
2023-10-23T11:14:03.554Z,30.38
2023-10-23T11:16:32.673Z,30.16
2023-10-23T11:19:02.091Z,30.00
2023-10-23T11:21:30.124Z,29.64
2023-10-23T11:23:58.232Z,30.04
2023-10-23T11:26:27.212Z,30.36
2023-10-23T11:28:55.155Z,31.10
2023-10-23T11:31:23.598Z,31.02
2023-10-23T11:33:53.221Z,31.46
2023-10-23T11:36:22.684Z,31.28
2023-10-23T11:38:51.713Z,31.00
2023-10-23T11:41:22.250Z,30.20
2023-10-23T11:43:50.421Z,30.20
2023-10-23T11:46:19.111Z,30.20
2023-10-23T11:48:47.712Z,31.18
2023-10-23T11:51:16.566Z,31.86
2023-10-23T11:53:47.466Z,31.90
2023-10-23T11:56:15.548Z,31.96
2023-10-23T11:58:46.734Z,32.52
2023-10-23T12:01:15.197Z,32.58
2023-10-23T12:03:43.168Z,31.86
2023-10-23T12:06:11.446Z,31.90
2023-10-23T12:08:39.531Z,31.86
2023-10-23T12:11:07.692Z,31.46
2023-10-23T12:13:37.023Z,31.66
2023-10-23T12:16:05.468Z,32.12
2023-10-23T12:18:33.680Z,32.14
2023-10-23T12:21:02.257Z,32.18
2023-10-23T12:23:30.337Z,32.70
2023-10-23T12:25:58.883Z,32.66
2023-10-23T12:28:27.409Z,32.50
2023-10-23T12:30:56.081Z,33.22
2023-10-23T12:33:30.312Z,32.98
2023-10-23T12:36:06.898Z,33.10
2023-10-23T12:38:35.397Z,32.16
2023-10-23T12:41:03.615Z,32.00
2023-10-23T12:43:31.894Z,32.34
2023-10-23T12:46:01.714Z,32.00
2023-10-23T12:48:30.134Z,33.00
2023-10-23T12:50:58.365Z,32.62
2023-10-23T12:53:26.446Z,32.76
2023-10-23T12:55:54.424Z,32.76
2023-10-23T12:58:22.608Z,33.56
2023-10-23T13:00:50.748Z,33.04
2023-10-23T13:03:18.862Z,32.24
2023-10-23T13:05:46.912Z,31.88
2023-10-23T13:08:14.860Z,32.20
2023-10-23T13:10:42.856Z,31.90
2023-10-23T13:13:10.914Z,32.02
2023-10-23T13:15:38.907Z,31.82
2023-10-23T13:18:06.905Z,31.02
2023-10-23T13:21:29.600Z,30.98
2023-10-23T13:23:23.337Z,31.26
2023-10-23T13:26:05.865Z,31.00
2023-10-23T13:28:38.661Z,31.50
2023-10-23T13:31:06.778Z,30.26
2023-10-23T13:33:34.829Z,30.12
2023-10-23T13:36:03.223Z,30.20
2023-10-23T13:38:31.696Z,30.44
2023-10-23T13:40:59.775Z,30.06
2023-10-23T13:43:28.047Z,30.06
2023-10-23T13:45:56.350Z,30.00
2023-10-23T13:48:24.394Z,30.34
2023-10-23T13:50:53.315Z,30.44
2023-10-23T13:53:23.594Z,30.66
2023-10-23T13:55:52.844Z,30.32
2023-10-23T13:58:20.895Z,30.30
2023-10-23T14:00:49.559Z,29.90
2023-10-23T14:03:17.835Z,30.20
2023-10-23T14:05:46.176Z,30.36
2023-10-23T14:08:14.242Z,30.20
2023-10-23T14:10:42.830Z,30.28
2023-10-23T14:13:11.041Z,30.32
2023-10-23T14:15:39.312Z,30.48
2023-10-23T14:18:07.590Z,30.90
2023-10-23T14:20:35.724Z,30.56
2023-10-23T14:23:03.776Z,30.42
2023-10-23T14:25:31.867Z,30.42
2023-10-23T14:27:59.949Z,29.56
2023-10-23T14:30:28.088Z,29.80
2023-10-23T14:32:56.237Z,29.52
2023-10-23T14:35:24.138Z,29.70
2023-10-23T14:37:52.287Z,29.24
2023-10-23T14:40:20.512Z,29.50
2023-10-23T14:42:48.943Z,29.52
2023-10-23T14:45:17.023Z,29.26
2023-10-23T14:47:45.130Z,29.08
2023-10-23T14:50:13.266Z,29.26
2023-10-23T14:52:41.343Z,28.70
2023-10-23T14:55:09.850Z,28.54
2023-10-23T14:57:38.038Z,28.40
2023-10-23T15:00:07.574Z,28.20
2023-10-23T15:02:35.794Z,27.90
2023-10-23T15:05:04.522Z,27.68
2023-10-23T15:07:33.143Z,27.38
2023-10-23T15:10:01.383Z,26.92
2023-10-23T15:12:29.661Z,26.56
2023-10-23T15:14:57.866Z,26.30
2023-10-23T15:17:26.111Z,26.00
2023-10-23T15:19:55.863Z,25.80
2023-10-23T15:22:24.113Z,25.60
2023-10-23T15:24:52.216Z,25.42
2023-10-23T15:27:20.307Z,25.50
2023-10-23T15:29:48.497Z,25.44
2023-10-23T15:32:16.741Z,25.30
2023-10-23T15:34:44.696Z,25.06
2023-10-23T15:37:13.050Z,24.80
2023-10-23T15:39:45.328Z,24.48
2023-10-23T15:42:13.452Z,24.04
2023-10-23T15:44:43.381Z,23.60
2023-10-23T15:47:13.468Z,23.30
2023-10-23T15:49:42.172Z,23.08
2023-10-23T15:52:10.444Z,22.66
2023-10-23T15:54:39.062Z,22.40
2023-10-23T15:57:07.105Z,22.00
2023-10-23T15:59:35.192Z,21.74
2023-10-23T16:02:03.629Z,21.40
2023-10-23T16:04:31.914Z,21.28
2023-10-23T16:07:00.324Z,21.10
2023-10-23T16:09:29.155Z,21.10
2023-10-23T16:11:57.364Z,21.10
2023-10-23T16:14:53.723Z,20.92
2023-10-23T16:17:26.397Z,20.70
2023-10-23T16:19:54.364Z,20.60
2023-10-23T16:22:24.020Z,20.40
2023-10-23T16:24:52.474Z,20.20
2023-10-23T16:27:20.432Z,20.24
2023-10-23T16:29:50.306Z,20.10
2023-10-23T16:32:18.758Z,20.10
2023-10-23T16:34:47.155Z,20.00
2023-10-23T16:37:15.356Z,19.90
2023-10-23T16:39:46.491Z,19.82
2023-10-23T16:42:14.596Z,19.80
2023-10-23T16:44:54.695Z,19.70
2023-10-23T16:47:24.353Z,19.60
2023-10-23T16:49:56.085Z,19.48
2023-10-23T16:52:24.252Z,19.40
2023-10-23T16:54:52.521Z,19.30
2023-10-23T16:57:20.620Z,19.10
2023-10-23T16:59:49.026Z,19.00
2023-10-23T17:02:17.253Z,18.90
2023-10-23T17:04:47.905Z,18.80
2023-10-23T17:07:19.987Z,18.70
2023-10-23T17:09:51.053Z,18.60
2023-10-23T17:12:19.648Z,18.60
2023-10-23T17:14:47.774Z,18.60
2023-10-23T17:17:16.466Z,18.60
2023-10-23T17:19:50.650Z,18.50
2023-10-23T17:22:18.873Z,18.50
2023-10-23T17:24:46.961Z,18.40
2023-10-23T17:27:14.828Z,18.40
2023-10-23T17:29:43.894Z,18.40
2023-10-23T17:32:11.982Z,18.30
2023-10-23T17:34:40.644Z,18.20
2023-10-23T17:37:08.848Z,18.10
2023-10-23T17:39:37.015Z,17.86
2023-10-23T17:42:05.434Z,17.60
2023-10-23T17:44:33.642Z,17.60
2023-10-23T17:47:01.940Z,17.40
2023-10-23T17:49:30.504Z,17.30
2023-10-23T17:51:59.594Z,17.20
2023-10-23T17:54:27.685Z,17.10
2023-10-23T17:56:58.040Z,17.20
2023-10-23T17:59:26.094Z,17.10
2023-10-23T18:01:54.296Z,17.00
2023-10-23T18:04:22.627Z,16.84
2023-10-23T18:06:50.627Z,16.90
2023-10-23T18:09:25.004Z,16.80
2023-10-23T18:11:53.140Z,16.80
2023-10-23T18:14:21.445Z,16.80
2023-10-23T18:16:49.622Z,16.70
2023-10-23T18:19:18.180Z,16.78
2023-10-23T18:21:46.783Z,16.80
2023-10-23T18:24:16.616Z,16.80
2023-10-23T18:26:44.678Z,16.74
2023-10-23T18:29:14.601Z,16.70
2023-10-23T18:31:46.563Z,16.70
2023-10-23T18:34:14.839Z,16.70
2023-10-23T18:36:42.898Z,16.70
2023-10-23T18:39:10.969Z,16.64
2023-10-23T18:41:41.913Z,16.60
2023-10-23T18:44:10.659Z,16.60
2023-10-23T18:46:39.497Z,16.50
2023-10-23T18:49:07.533Z,16.46
2023-10-23T18:51:35.864Z,16.40
2023-10-23T18:54:03.941Z,16.30
2023-10-23T18:56:33.404Z,16.24
2023-10-23T18:59:01.463Z,16.20
2023-10-23T19:01:29.975Z,16.20
2023-10-23T19:03:58.388Z,16.20
2023-10-23T19:06:26.400Z,16.16
2023-10-23T19:08:55.483Z,16.10
2023-10-23T19:11:24.948Z,16.10
2023-10-23T19:13:52.921Z,16.04
2023-10-23T19:16:24.564Z,15.92
2023-10-23T19:18:55.885Z,15.70
2023-10-23T19:21:26.023Z,15.90
2023-10-23T19:23:54.027Z,15.80
2023-10-23T19:26:22.973Z,15.80
2023-10-23T19:28:51.041Z,15.80
2023-10-23T19:31:24.307Z,15.80
2023-10-23T19:33:52.658Z,15.80
2023-10-23T19:36:25.561Z,15.80
2023-10-23T19:38:54.013Z,15.80
2023-10-23T19:41:27.279Z,15.80
2023-10-23T19:43:55.733Z,15.80
2023-10-23T19:46:24.140Z,15.70
2023-10-23T19:49:09.966Z,15.50
2023-10-23T19:51:56.052Z,15.40
2023-10-23T19:54:48.315Z,15.30
2023-10-23T19:57:34.526Z,15.20
2023-10-23T20:00:05.115Z,15.10
2023-10-23T20:02:33.587Z,15.00
2023-10-23T20:05:01.911Z,15.00
2023-10-23T20:07:30.110Z,14.90
2023-10-23T20:09:58.141Z,14.80
2023-10-23T20:12:26.447Z,14.62
2023-10-23T20:14:54.405Z,14.50
2023-10-23T20:17:23.554Z,14.40
2023-10-23T20:19:52.464Z,14.40
2023-10-23T20:22:20.749Z,14.40
2023-10-23T20:24:48.734Z,14.40
2023-10-23T20:27:16.705Z,14.40
2023-10-23T20:29:45.592Z,14.40
2023-10-23T20:32:13.645Z,14.38
2023-10-23T20:34:41.856Z,14.30
2023-10-23T20:37:09.861Z,14.32
2023-10-23T20:39:38.771Z,14.30
2023-10-23T20:42:07.016Z,14.30
2023-10-23T20:44:34.988Z,14.08
2023-10-23T20:47:04.330Z,13.90
2023-10-23T20:49:33.915Z,14.00
2023-10-23T20:52:02.174Z,13.90
2023-10-23T20:54:30.180Z,13.82
2023-10-23T20:56:58.224Z,13.80
2023-10-23T20:59:26.217Z,13.80
2023-10-23T21:01:54.301Z,13.80
2023-10-23T21:04:22.415Z,13.70
2023-10-23T21:06:51.839Z,13.60
2023-10-23T21:09:19.868Z,13.48
2023-10-23T21:11:47.786Z,13.32
2023-10-23T21:14:15.911Z,13.30
2023-10-23T21:16:44.031Z,13.50
2023-10-23T21:19:12.555Z,13.50
2023-10-23T21:21:40.785Z,13.40
2023-10-23T21:24:08.939Z,13.40
2023-10-23T21:26:37.199Z,13.40
2023-10-23T21:29:24.348Z,13.40
2023-10-23T21:31:53.812Z,13.40
2023-10-23T21:34:21.932Z,13.40
2023-10-23T21:36:50.567Z,13.44
2023-10-23T21:39:18.721Z,13.40
2023-10-23T21:41:46.796Z,13.30
2023-10-23T21:44:14.826Z,13.10
2023-10-23T21:46:43.029Z,13.20
2023-10-23T21:49:11.691Z,13.20
2023-10-23T21:51:41.418Z,13.20
2023-10-23T21:54:10.464Z,13.26
2023-10-23T21:57:19.892Z,13.36
2023-10-23T21:59:27.427Z,13.44
2023-10-23T22:01:55.864Z,13.50
2023-10-23T22:04:24.459Z,13.60
2023-10-23T22:06:52.707Z,13.52
2023-10-23T22:09:20.969Z,13.60
2023-10-23T22:11:49.486Z,13.50
2023-10-23T22:14:17.878Z,13.50
2023-10-23T22:16:45.955Z,13.36
2023-10-23T22:19:14.578Z,13.40
2023-10-23T22:21:42.806Z,13.40
2023-10-23T22:24:10.786Z,13.40
2023-10-23T22:26:38.825Z,13.30
2023-10-23T22:29:06.925Z,13.10
2023-10-23T22:31:35.156Z,12.80
2023-10-23T22:34:03.377Z,12.80
2023-10-23T22:36:31.468Z,12.80
2023-10-23T22:38:59.441Z,12.80
2023-10-23T22:41:27.521Z,12.80
2023-10-23T22:43:55.553Z,12.60
2023-10-23T22:46:24.219Z,12.70
2023-10-23T22:48:52.456Z,12.66
2023-10-23T22:51:20.853Z,12.60
2023-10-23T22:53:49.156Z,12.50
2023-10-23T22:56:21.909Z,12.54
2023-10-23T22:58:50.209Z,12.40
2023-10-23T23:01:20.262Z,12.40
2023-10-23T23:03:48.712Z,12.46
2023-10-23T23:06:20.301Z,12.30
2023-10-23T23:08:51.709Z,12.22
2023-10-23T23:11:20.022Z,12.20
2023-10-23T23:13:48.125Z,12.20
2023-10-23T23:16:19.794Z,12.20
2023-10-23T23:18:52.032Z,12.20
2023-10-23T23:21:21.449Z,12.28
2023-10-23T23:23:49.323Z,12.16
2023-10-23T23:26:17.430Z,12.30
2023-10-23T23:28:45.653Z,12.30
2023-10-23T23:31:13.749Z,12.20
2023-10-23T23:33:41.750Z,12.20
2023-10-23T23:36:09.727Z,12.12
2023-10-23T23:38:38.399Z,12.16
2023-10-23T23:41:07.338Z,12.20
2023-10-23T23:43:36.673Z,12.20
2023-10-23T23:46:04.812Z,12.20
2023-10-23T23:48:33.123Z,12.10
2023-10-23T23:51:01.103Z,11.90
2023-10-23T23:53:29.202Z,11.70
2023-10-23T23:55:57.200Z,11.70
2023-10-23T23:58:26.674Z,11.60
